sensor_id;sensor_type;location;lat;lon;timestamp;noise_LAeq;noise_LA_min;noise_LA_max;noise_LA01;noise_LA95
74234;Laerm;62591;55.764;37.718;2023-02-15T00:00:15;42.10;36.80;55.31;;
74234;Laerm;62591;55.764;37.718;2023-02-15T00:02:44;43.35;37.61;57.90;;
74234;Laerm;62591;55.764;37.718;2023-02-15T00:05:13;44.02;38.44;60.64;;
74234;Laerm;62591;55.764;37.718;2023-02-15T00:07:43;44.86;38.13;66.84;;
74234;Laerm;62591;55.764;37.718;2023-02-15T00:10:11;42.59;36.51;61.51;;
74234;Laerm;62591;55.764;37.718;2023-02-15T00:12:41;42.32;36.95;54.09;;
74234;Laerm;62591;55.764;37.718;2023-02-15T00:15:09;42.57;37.77;50.52;;
74234;Laerm;62591;55.764;37.718;2023-02-15T00:17:39;42.90;37.73;63.48;;
74234;Laerm;62591;55.764;37.718;2023-02-15T00:20:08;41.61;37.82;57.53;;
74234;Laerm;62591;55.764;37.718;2023-02-15T00:22:37;44.17;38.37;59.71;;
74234;Laerm;62591;55.764;37.718;2023-02-15T00:25:09;42.27;36.85;53.91;;
74234;Laerm;62591;55.764;37.718;2023-02-15T00:27:37;42.44;36.86;53.79;;
74234;Laerm;62591;55.764;37.718;2023-02-15T00:30:07;43.29;36.73;67.13;;
74234;Laerm;62591;55.764;37.718;2023-02-15T00:32:36;42.56;37.19;59.42;;
74234;Laerm;62591;55.764;37.718;2023-02-15T00:35:04;41.86;37.85;52.64;;
74234;Laerm;62591;55.764;37.718;2023-02-15T00:37:34;43.03;38.08;63.33;;
74234;Laerm;62591;55.764;37.718;2023-02-15T00:40:03;41.14;37.82;58.72;;
74234;Laerm;62591;55.764;37.718;2023-02-15T00:42:33;41.37;37.13;57.43;;
74234;Laerm;62591;55.764;37.718;2023-02-15T00:45:02;39.87;36.47;47.37;;
74234;Laerm;62591;55.764;37.718;2023-02-15T00:47:30;48.01;36.49;72.62;;
74234;Laerm;62591;55.764;37.718;2023-02-15T00:49:59;49.69;38.25;71.37;;
74234;Laerm;62591;55.764;37.718;2023-02-15T00:52:30;42.97;38.37;51.14;;
74234;Laerm;62591;55.764;37.718;2023-02-15T00:54:58;43.12;37.33;53.65;;
74234;Laerm;62591;55.764;37.718;2023-02-15T00:57:29;41.03;37.00;50.22;;
74234;Laerm;62591;55.764;37.718;2023-02-15T00:59:59;42.25;37.21;63.92;;
74234;Laerm;62591;55.764;37.718;2023-02-15T01:02:29;42.80;36.73;54.78;;
74234;Laerm;62591;55.764;37.718;2023-02-15T01:04:57;40.77;37.03;50.80;;
74234;Laerm;62591;55.764;37.718;2023-02-15T01:07:26;43.83;37.60;56.43;;
74234;Laerm;62591;55.764;37.718;2023-02-15T01:09:54;42.67;38.08;57.63;;
74234;Laerm;62591;55.764;37.718;2023-02-15T01:12:23;42.17;38.47;58.30;;
74234;Laerm;62591;55.764;37.718;2023-02-15T01:14:52;41.79;36.93;50.58;;
74234;Laerm;62591;55.764;37.718;2023-02-15T01:17:22;42.32;36.63;58.76;;
74234;Laerm;62591;55.764;37.718;2023-02-15T01:19:50;42.19;37.81;59.89;;
74234;Laerm;62591;55.764;37.718;2023-02-15T01:22:20;42.30;37.96;58.15;;
74234;Laerm;62591;55.764;37.718;2023-02-15T01:24:49;41.08;37.16;49.50;;
74234;Laerm;62591;55.764;37.718;2023-02-15T01:27:18;41.53;37.42;49.47;;
74234;Laerm;62591;55.764;37.718;2023-02-15T01:29:46;41.23;37.84;51.60;;
74234;Laerm;62591;55.764;37.718;2023-02-15T01:32:15;44.13;38.04;58.86;;
74234;Laerm;62591;55.764;37.718;2023-02-15T01:34:45;41.64;37.51;50.77;;
74234;Laerm;62591;55.764;37.718;2023-02-15T01:37:13;45.32;38.35;71.34;;
74234;Laerm;62591;55.764;37.718;2023-02-15T01:39:45;44.92;38.13;66.11;;
74234;Laerm;62591;55.764;37.718;2023-02-15T01:42:13;47.17;39.49;69.74;;
74234;Laerm;62591;55.764;37.718;2023-02-15T01:44:50;43.42;38.18;61.39;;
74234;Laerm;62591;55.764;37.718;2023-02-15T01:47:22;42.69;38.47;54.50;;
74234;Laerm;62591;55.764;37.718;2023-02-15T01:50:00;42.34;37.79;50.45;;
74234;Laerm;62591;55.764;37.718;2023-02-15T01:52:30;44.50;37.97;64.91;;
74234;Laerm;62591;55.764;37.718;2023-02-15T01:54:59;43.76;37.86;54.34;;
74234;Laerm;62591;55.764;37.718;2023-02-15T01:57:29;41.91;37.69;63.79;;
74234;Laerm;62591;55.764;37.718;2023-02-15T02:00:04;41.19;37.46;49.75;;
74234;Laerm;62591;55.764;37.718;2023-02-15T02:02:41;43.32;37.93;50.54;;
74234;Laerm;62591;55.764;37.718;2023-02-15T02:05:13;43.63;37.02;52.20;;
74234;Laerm;62591;55.764;37.718;2023-02-15T02:07:44;42.58;37.91;57.54;;
74234;Laerm;62591;55.764;37.718;2023-02-15T02:10:16;42.44;37.05;51.80;;
74234;Laerm;62591;55.764;37.718;2023-02-15T02:12:46;43.53;37.64;57.05;;
74234;Laerm;62591;55.764;37.718;2023-02-15T02:15:18;42.70;36.85;54.37;;
74234;Laerm;62591;55.764;37.718;2023-02-15T02:17:58;42.30;37.31;52.66;;
74234;Laerm;62591;55.764;37.718;2023-02-15T02:20:43;43.60;37.60;58.07;;
74234;Laerm;62591;55.764;37.718;2023-02-15T02:23:36;43.58;38.13;52.59;;
74234;Laerm;62591;55.764;37.718;2023-02-15T02:32:52;47.76;38.50;74.85;;
74234;Laerm;62591;55.764;37.718;2023-02-15T02:35:24;44.14;37.79;59.82;;
74234;Laerm;62591;55.764;37.718;2023-02-15T02:38:03;43.30;38.79;58.89;;
74234;Laerm;62591;55.764;37.718;2023-02-15T02:40:44;49.91;38.50;70.58;;
74234;Laerm;62591;55.764;37.718;2023-02-15T02:43:20;45.75;38.12;57.15;;
74234;Laerm;62591;55.764;37.718;2023-02-15T02:45:54;45.42;38.88;57.93;;
74234;Laerm;62591;55.764;37.718;2023-02-15T02:48:30;43.08;38.20;53.21;;
74234;Laerm;62591;55.764;37.718;2023-02-15T02:51:00;42.45;37.61;47.72;;
74234;Laerm;62591;55.764;37.718;2023-02-15T02:53:30;43.90;38.67;52.86;;
74234;Laerm;62591;55.764;37.718;2023-02-15T02:56:03;43.89;39.19;53.84;;
74234;Laerm;62591;55.764;37.718;2023-02-15T02:58:38;43.79;38.90;56.96;;
74234;Laerm;62591;55.764;37.718;2023-02-15T03:01:11;44.39;38.51;62.06;;
74234;Laerm;62591;55.764;37.718;2023-02-15T03:03:44;46.01;39.11;58.01;;
74234;Laerm;62591;55.764;37.718;2023-02-15T03:06:18;43.92;39.90;52.64;;
74234;Laerm;62591;55.764;37.718;2023-02-15T03:08:52;44.79;38.24;57.33;;
74234;Laerm;62591;55.764;37.718;2023-02-15T03:11:24;45.74;39.76;62.42;;
74234;Laerm;62591;55.764;37.718;2023-02-15T03:13:52;47.36;40.63;65.30;;
74234;Laerm;62591;55.764;37.718;2023-02-15T03:16:21;43.78;39.28;52.87;;
74234;Laerm;62591;55.764;37.718;2023-02-15T03:19:00;45.39;39.75;56.19;;
74234;Laerm;62591;55.764;37.718;2023-02-15T03:21:31;50.07;40.27;67.53;;
74234;Laerm;62591;55.764;37.718;2023-02-15T03:24:09;46.51;39.66;66.63;;
74234;Laerm;62591;55.764;37.718;2023-02-15T03:26:39;50.15;39.79;72.00;;
74234;Laerm;62591;55.764;37.718;2023-02-15T03:29:11;46.69;41.10;55.28;;
74234;Laerm;62591;55.764;37.718;2023-02-15T03:31:44;50.59;41.36;76.42;;
74234;Laerm;62591;55.764;37.718;2023-02-15T03:34:17;49.75;43.23;67.00;;
74234;Laerm;62591;55.764;37.718;2023-02-15T03:36:50;51.44;43.44;72.87;;
74234;Laerm;62591;55.764;37.718;2023-02-15T03:39:26;50.22;45.41;64.60;;
74234;Laerm;62591;55.764;37.718;2023-02-15T03:42:07;49.16;43.16;60.79;;
74234;Laerm;62591;55.764;37.718;2023-02-15T03:44:45;47.70;42.70;60.65;;
74234;Laerm;62591;55.764;37.718;2023-02-15T03:47:18;48.60;41.83;61.68;;
74234;Laerm;62591;55.764;37.718;2023-02-15T03:49:52;48.17;42.65;67.85;;
74234;Laerm;62591;55.764;37.718;2023-02-15T03:52:21;47.76;41.81;66.46;;
74234;Laerm;62591;55.764;37.718;2023-02-15T03:54:50;46.25;40.68;60.91;;
74234;Laerm;62591;55.764;37.718;2023-02-15T03:57:21;47.11;41.96;54.08;;
74234;Laerm;62591;55.764;37.718;2023-02-15T04:00:13;46.27;41.78;60.27;;
74234;Laerm;62591;55.764;37.718;2023-02-15T04:03:15;49.68;39.99;70.63;;
74234;Laerm;62591;55.764;37.718;2023-02-15T04:05:49;46.65;41.02;54.53;;
74234;Laerm;62591;55.764;37.718;2023-02-15T04:08:17;46.87;40.90;64.43;;
74234;Laerm;62591;55.764;37.718;2023-02-15T04:10:47;49.51;41.76;68.98;;
74234;Laerm;62591;55.764;37.718;2023-02-15T04:13:21;47.18;41.04;69.21;;
74234;Laerm;62591;55.764;37.718;2023-02-15T04:15:50;46.92;42.27;53.88;;
74234;Laerm;62591;55.764;37.718;2023-02-15T04:18:39;45.05;39.30;54.33;;
74234;Laerm;62591;55.764;37.718;2023-02-15T04:21:28;46.58;40.80;61.06;;
74234;Laerm;62591;55.764;37.718;2023-02-15T04:24:14;48.75;42.82;61.46;;
74234;Laerm;62591;55.764;37.718;2023-02-15T04:27:03;48.00;39.73;69.69;;
74234;Laerm;62591;55.764;37.718;2023-02-15T04:29:33;48.68;42.73;59.64;;
74234;Laerm;62591;55.764;37.718;2023-02-15T04:32:01;48.43;42.32;63.37;;
74234;Laerm;62591;55.764;37.718;2023-02-15T04:34:30;50.42;43.62;73.51;;
74234;Laerm;62591;55.764;37.718;2023-02-15T04:37:00;51.48;43.79;71.64;;
74234;Laerm;62591;55.764;37.718;2023-02-15T04:39:29;50.66;43.80;71.92;;
74234;Laerm;62591;55.764;37.718;2023-02-15T04:41:59;47.76;43.16;62.12;;
74234;Laerm;62591;55.764;37.718;2023-02-15T04:44:27;46.93;41.12;56.64;;
74234;Laerm;62591;55.764;37.718;2023-02-15T04:46:56;48.01;42.99;66.32;;
74234;Laerm;62591;55.764;37.718;2023-02-15T04:49:25;47.42;42.78;62.28;;
74234;Laerm;62591;55.764;37.718;2023-02-15T04:51:54;50.61;40.79;62.38;;
74234;Laerm;62591;55.764;37.718;2023-02-15T04:54:24;50.43;43.17;72.96;;
74234;Laerm;62591;55.764;37.718;2023-02-15T04:56:53;51.02;43.62;64.64;;
74234;Laerm;62591;55.764;37.718;2023-02-15T04:59:21;49.82;41.58;65.24;;
74234;Laerm;62591;55.764;37.718;2023-02-15T05:01:49;50.64;43.77;72.56;;
74234;Laerm;62591;55.764;37.718;2023-02-15T05:04:18;57.71;43.82;83.53;;
74234;Laerm;62591;55.764;37.718;2023-02-15T05:06:47;51.74;46.04;75.07;;
74234;Laerm;62591;55.764;37.718;2023-02-15T05:09:15;50.70;44.85;70.79;;
74234;Laerm;62591;55.764;37.718;2023-02-15T05:11:46;50.44;45.51;70.99;;
74234;Laerm;62591;55.764;37.718;2023-02-15T05:14:14;49.97;44.57;65.76;;
74234;Laerm;62591;55.764;37.718;2023-02-15T05:16:43;47.92;42.39;58.88;;
74234;Laerm;62591;55.764;37.718;2023-02-15T05:19:13;48.68;43.04;62.31;;
74234;Laerm;62591;55.764;37.718;2023-02-15T05:21:41;52.15;44.16;71.86;;
74234;Laerm;62591;55.764;37.718;2023-02-15T05:24:10;49.93;43.81;69.76;;
74234;Laerm;62591;55.764;37.718;2023-02-15T05:26:58;48.50;41.98;63.00;;
74234;Laerm;62591;55.764;37.718;2023-02-15T05:29:43;50.87;43.22;67.26;;
74234;Laerm;62591;55.764;37.718;2023-02-15T05:32:13;48.74;42.71;59.07;;
74234;Laerm;62591;55.764;37.718;2023-02-15T05:34:42;48.44;42.91;62.13;;
74234;Laerm;62591;55.764;37.718;2023-02-15T05:37:12;48.22;44.23;60.62;;
74234;Laerm;62591;55.764;37.718;2023-02-15T05:39:40;47.71;43.10;56.14;;
74234;Laerm;62591;55.764;37.718;2023-02-15T05:42:13;48.09;42.96;61.89;;
74234;Laerm;62591;55.764;37.718;2023-02-15T05:44:41;48.36;44.44;61.19;;
74234;Laerm;62591;55.764;37.718;2023-02-15T05:47:10;49.21;43.92;61.69;;
74234;Laerm;62591;55.764;37.718;2023-02-15T05:49:38;49.00;43.62;65.89;;
74234;Laerm;62591;55.764;37.718;2023-02-15T05:52:06;49.91;43.58;67.06;;
74234;Laerm;62591;55.764;37.718;2023-02-15T05:54:35;52.62;43.95;71.18;;
74234;Laerm;62591;55.764;37.718;2023-02-15T05:57:03;52.76;45.43;67.61;;
74234;Laerm;62591;55.764;37.718;2023-02-15T05:59:33;50.43;43.76;66.71;;
74234;Laerm;62591;55.764;37.718;2023-02-15T06:02:02;49.74;43.59;66.29;;
74234;Laerm;62591;55.764;37.718;2023-02-15T06:04:33;52.07;45.51;81.93;;
74234;Laerm;62591;55.764;37.718;2023-02-15T06:07:02;50.42;44.25;70.07;;
74234;Laerm;62591;55.764;37.718;2023-02-15T06:09:31;49.44;43.14;66.42;;
74234;Laerm;62591;55.764;37.718;2023-02-15T06:11:59;48.69;42.84;63.73;;
74234;Laerm;62591;55.764;37.718;2023-02-15T06:14:28;48.64;43.57;63.92;;
74234;Laerm;62591;55.764;37.718;2023-02-15T06:16:59;49.80;43.08;69.55;;
74234;Laerm;62591;55.764;37.718;2023-02-15T06:19:27;49.33;42.03;66.13;;
74234;Laerm;62591;55.764;37.718;2023-02-15T06:21:56;50.39;42.55;66.37;;
74234;Laerm;62591;55.764;37.718;2023-02-15T06:24:24;52.80;42.69;71.89;;
74234;Laerm;62591;55.764;37.718;2023-02-15T06:26:53;53.02;44.48;72.85;;
74234;Laerm;62591;55.764;37.718;2023-02-15T06:29:22;50.73;45.53;64.87;;
74234;Laerm;62591;55.764;37.718;2023-02-15T06:31:51;49.50;44.58;67.13;;
74234;Laerm;62591;55.764;37.718;2023-02-15T06:34:21;48.77;43.53;62.07;;
74234;Laerm;62591;55.764;37.718;2023-02-15T06:36:51;49.27;43.29;66.94;;
74234;Laerm;62591;55.764;37.718;2023-02-15T06:39:27;48.59;43.78;66.11;;
74234;Laerm;62591;55.764;37.718;2023-02-15T06:41:57;53.12;45.24;69.71;;
74234;Laerm;62591;55.764;37.718;2023-02-15T06:44:26;52.68;49.14;64.16;;
74234;Laerm;62591;55.764;37.718;2023-02-15T06:46:54;52.82;44.83;61.22;;
74234;Laerm;62591;55.764;37.718;2023-02-15T06:49:26;49.34;43.86;63.87;;
74234;Laerm;62591;55.764;37.718;2023-02-15T06:51:54;51.37;44.43;65.21;;
74234;Laerm;62591;55.764;37.718;2023-02-15T06:54:26;49.94;45.46;64.72;;
74234;Laerm;62591;55.764;37.718;2023-02-15T06:56:55;51.90;44.75;66.31;;
74234;Laerm;62591;55.764;37.718;2023-02-15T06:59:24;50.57;43.76;66.43;;
74234;Laerm;62591;55.764;37.718;2023-02-15T07:01:54;53.60;42.71;72.18;;
74234;Laerm;62591;55.764;37.718;2023-02-15T07:04:27;49.32;42.94;68.71;;
74234;Laerm;62591;55.764;37.718;2023-02-15T07:06:57;49.48;42.89;68.19;;
74234;Laerm;62591;55.764;37.718;2023-02-15T07:09:25;53.67;44.51;73.87;;
74234;Laerm;62591;55.764;37.718;2023-02-15T07:11:54;52.67;44.97;66.18;;
74234;Laerm;62591;55.764;37.718;2023-02-15T07:14:40;50.63;43.26;66.31;;
74234;Laerm;62591;55.764;37.718;2023-02-15T07:17:09;50.08;41.82;66.31;;
74234;Laerm;62591;55.764;37.718;2023-02-15T07:19:58;50.49;42.37;68.73;;
74234;Laerm;62591;55.764;37.718;2023-02-15T07:22:27;49.40;43.06;65.68;;
74234;Laerm;62591;55.764;37.718;2023-02-15T07:24:56;49.69;43.86;67.12;;
74234;Laerm;62591;55.764;37.718;2023-02-15T07:27:24;49.86;42.02;70.85;;
74234;Laerm;62591;55.764;37.718;2023-02-15T07:29:53;49.75;43.30;68.90;;
74234;Laerm;62591;55.764;37.718;2023-02-15T07:32:27;51.13;44.54;68.97;;
74234;Laerm;62591;55.764;37.718;2023-02-15T07:34:56;49.54;44.08;67.93;;
74234;Laerm;62591;55.764;37.718;2023-02-15T07:37:27;49.42;44.06;67.15;;
74234;Laerm;62591;55.764;37.718;2023-02-15T07:39:55;50.95;43.12;69.00;;
74234;Laerm;62591;55.764;37.718;2023-02-15T07:42:25;52.59;44.45;72.08;;
74234;Laerm;62591;55.764;37.718;2023-02-15T07:44:54;56.22;45.12;78.34;;
74234;Laerm;62591;55.764;37.718;2023-02-15T07:47:23;54.62;47.86;69.99;;
74234;Laerm;62591;55.764;37.718;2023-02-15T07:49:51;54.10;46.65;69.10;;
74234;Laerm;62591;55.764;37.718;2023-02-15T07:52:20;53.02;47.30;68.35;;
74234;Laerm;62591;55.764;37.718;2023-02-15T07:54:50;53.58;46.16;71.31;;
74234;Laerm;62591;55.764;37.718;2023-02-15T07:57:21;51.18;45.78;68.09;;
74234;Laerm;62591;55.764;37.718;2023-02-15T07:59:51;51.95;46.26;66.83;;
74234;Laerm;62591;55.764;37.718;2023-02-15T08:02:20;51.54;45.79;65.99;;
74234;Laerm;62591;55.764;37.718;2023-02-15T08:04:49;51.59;46.56;75.07;;
74234;Laerm;62591;55.764;37.718;2023-02-15T08:07:18;51.58;45.93;69.00;;
74234;Laerm;62591;55.764;37.718;2023-02-15T08:09:47;50.23;45.41;63.72;;
74234;Laerm;62591;55.764;37.718;2023-02-15T08:12:26;50.27;45.98;62.28;;
74234;Laerm;62591;55.764;37.718;2023-02-15T08:14:55;51.17;46.11;67.43;;
74234;Laerm;62591;55.764;37.718;2023-02-15T08:17:26;52.28;46.91;72.90;;
74234;Laerm;62591;55.764;37.718;2023-02-15T08:19:56;52.11;45.61;68.04;;
74234;Laerm;62591;55.764;37.718;2023-02-15T08:22:25;51.96;47.13;64.92;;
74234;Laerm;62591;55.764;37.718;2023-02-15T08:24:53;50.99;47.25;69.82;;
74234;Laerm;62591;55.764;37.718;2023-02-15T08:27:23;53.21;46.83;70.72;;
74234;Laerm;62591;55.764;37.718;2023-02-15T08:29:53;55.75;47.89;72.03;;
74234;Laerm;62591;55.764;37.718;2023-02-15T08:32:22;54.14;47.52;65.00;;
74234;Laerm;62591;55.764;37.718;2023-02-15T08:34:50;54.61;47.84;70.12;;
74234;Laerm;62591;55.764;37.718;2023-02-15T08:37:19;52.40;43.26;67.16;;
74234;Laerm;62591;55.764;37.718;2023-02-15T08:39:48;54.74;44.81;71.26;;
74234;Laerm;62591;55.764;37.718;2023-02-15T08:42:18;52.29;43.19;68.63;;
74234;Laerm;62591;55.764;37.718;2023-02-15T08:44:49;49.33;43.89;62.54;;
74234;Laerm;62591;55.764;37.718;2023-02-15T08:47:18;51.12;43.51;69.58;;
74234;Laerm;62591;55.764;37.718;2023-02-15T08:49:47;51.19;44.63;62.81;;
74234;Laerm;62591;55.764;37.718;2023-02-15T08:52:15;49.20;41.83;68.71;;
74234;Laerm;62591;55.764;37.718;2023-02-15T08:54:45;48.23;42.23;62.72;;
74234;Laerm;62591;55.764;37.718;2023-02-15T08:57:13;50.46;42.30;74.78;;
74234;Laerm;62591;55.764;37.718;2023-02-15T08:59:42;51.05;41.90;70.65;;
74234;Laerm;62591;55.764;37.718;2023-02-15T09:02:13;48.44;41.37;65.73;;
74234;Laerm;62591;55.764;37.718;2023-02-15T09:04:44;55.69;41.39;75.17;;
74234;Laerm;62591;55.764;37.718;2023-02-15T09:07:13;48.68;41.42;56.95;;
74234;Laerm;62591;55.764;37.718;2023-02-15T09:09:42;48.78;44.80;60.28;;
74234;Laerm;62591;55.764;37.718;2023-02-15T09:12:13;49.98;43.33;69.04;;
74234;Laerm;62591;55.764;37.718;2023-02-15T09:14:42;48.08;42.07;58.72;;
74234;Laerm;62591;55.764;37.718;2023-02-15T09:17:13;50.55;42.24;70.90;;
74234;Laerm;62591;55.764;37.718;2023-02-15T09:19:42;51.52;43.77;68.78;;
74234;Laerm;62591;55.764;37.718;2023-02-15T09:22:11;49.39;41.40;60.70;;
74234;Laerm;62591;55.764;37.718;2023-02-15T09:24:40;51.52;42.83;66.84;;
74234;Laerm;62591;55.764;37.718;2023-02-15T09:27:09;48.35;42.28;59.88;;
74234;Laerm;62591;55.764;37.718;2023-02-15T09:29:38;49.73;42.64;65.29;;
74234;Laerm;62591;55.764;37.718;2023-02-15T09:32:15;48.74;41.83;63.70;;
74234;Laerm;62591;55.764;37.718;2023-02-15T09:34:44;48.45;43.46;60.51;;
74234;Laerm;62591;55.764;37.718;2023-02-15T09:37:14;48.32;42.85;59.82;;
74234;Laerm;62591;55.764;37.718;2023-02-15T09:39:44;50.97;41.97;68.37;;
74234;Laerm;62591;55.764;37.718;2023-02-15T09:45:23;48.99;42.61;65.99;;
74234;Laerm;62591;55.764;37.718;2023-02-15T09:51:15;50.10;43.41;72.10;;
74234;Laerm;62591;55.764;37.718;2023-02-15T09:54:02;47.32;41.39;61.49;;
74234;Laerm;62591;55.764;37.718;2023-02-15T09:56:38;47.05;41.15;63.52;;
74234;Laerm;62591;55.764;37.718;2023-02-15T09:59:15;47.61;43.42;66.36;;
74234;Laerm;62591;55.764;37.718;2023-02-15T10:01:55;48.99;41.45;63.26;;
74234;Laerm;62591;55.764;37.718;2023-02-15T10:04:43;49.71;43.27;66.02;;
74234;Laerm;62591;55.764;37.718;2023-02-15T10:07:30;50.62;41.69;65.64;;
74234;Laerm;62591;55.764;37.718;2023-02-15T10:10:15;50.00;43.56;65.44;;
74234;Laerm;62591;55.764;37.718;2023-02-15T10:12:57;48.85;42.02;64.91;;
74234;Laerm;62591;55.764;37.718;2023-02-15T10:15:53;49.80;41.36;67.42;;
74234;Laerm;62591;55.764;37.718;2023-02-15T10:18:39;48.05;40.85;61.52;;
74234;Laerm;62591;55.764;37.718;2023-02-15T10:21:26;49.42;42.63;66.83;;
74234;Laerm;62591;55.764;37.718;2023-02-15T10:24:13;49.20;42.08;64.99;;
74234;Laerm;62591;55.764;37.718;2023-02-15T10:26:48;47.70;41.26;59.89;;
74234;Laerm;62591;55.764;37.718;2023-02-15T10:29:27;52.14;40.47;69.55;;
74234;Laerm;62591;55.764;37.718;2023-02-15T10:32:08;49.00;41.95;67.86;;
74234;Laerm;62591;55.764;37.718;2023-02-15T10:34:49;48.51;42.79;58.37;;
74234;Laerm;62591;55.764;37.718;2023-02-15T10:37:56;47.54;43.60;55.04;;
74234;Laerm;62591;55.764;37.718;2023-02-15T10:40:34;47.22;41.97;61.08;;
74234;Laerm;62591;55.764;37.718;2023-02-15T10:43:23;46.82;40.40;60.54;;
74234;Laerm;62591;55.764;37.718;2023-02-15T10:46:03;47.57;40.73;61.77;;
74234;Laerm;62591;55.764;37.718;2023-02-15T10:51:41;48.34;41.69;60.03;;
74234;Laerm;62591;55.764;37.718;2023-02-15T10:54:24;46.97;41.22;61.19;;
74234;Laerm;62591;55.764;37.718;2023-02-15T10:57:03;48.15;41.98;64.24;;
74234;Laerm;62591;55.764;37.718;2023-02-15T10:59:50;47.43;42.63;67.71;;
74234;Laerm;62591;55.764;37.718;2023-02-15T11:02:31;48.41;41.98;73.18;;
74234;Laerm;62591;55.764;37.718;2023-02-15T11:05:19;47.40;41.28;61.88;;
74234;Laerm;62591;55.764;37.718;2023-02-15T11:07:54;47.92;40.72;68.16;;
74234;Laerm;62591;55.764;37.718;2023-02-15T11:10:30;48.24;42.88;62.59;;
74234;Laerm;62591;55.764;37.718;2023-02-15T11:13:07;52.36;43.27;71.22;;
74234;Laerm;62591;55.764;37.718;2023-02-15T11:15:41;50.47;44.80;64.69;;
74234;Laerm;62591;55.764;37.718;2023-02-15T11:18:15;48.49;42.59;60.09;;
74234;Laerm;62591;55.764;37.718;2023-02-15T11:20:53;49.17;42.23;61.47;;
74234;Laerm;62591;55.764;37.718;2023-02-15T11:23:25;49.52;41.49;73.82;;
74234;Laerm;62591;55.764;37.718;2023-02-15T11:25:57;49.07;43.12;65.98;;
74234;Laerm;62591;55.764;37.718;2023-02-15T11:28:31;49.88;43.20;66.27;;
74234;Laerm;62591;55.764;37.718;2023-02-15T11:31:13;48.19;42.49;62.82;;
74234;Laerm;62591;55.764;37.718;2023-02-15T11:33:50;48.34;42.66;58.35;;
74234;Laerm;62591;55.764;37.718;2023-02-15T11:36:24;47.95;42.12;58.07;;
74234;Laerm;62591;55.764;37.718;2023-02-15T11:38:59;47.83;42.54;64.58;;
74234;Laerm;62591;55.764;37.718;2023-02-15T11:41:34;48.45;41.94;63.98;;
74234;Laerm;62591;55.764;37.718;2023-02-15T11:44:10;47.67;41.80;63.35;;
74234;Laerm;62591;55.764;37.718;2023-02-15T11:46:41;48.75;42.86;62.88;;
74234;Laerm;62591;55.764;37.718;2023-02-15T11:49:20;52.26;43.54;71.01;;
74234;Laerm;62591;55.764;37.718;2023-02-15T11:51:50;47.04;41.98;62.69;;
74234;Laerm;62591;55.764;37.718;2023-02-15T11:54:23;48.59;42.35;59.02;;
74234;Laerm;62591;55.764;37.718;2023-02-15T11:57:00;46.53;40.75;62.50;;
74234;Laerm;62591;55.764;37.718;2023-02-15T11:59:34;47.33;41.08;61.00;;
74234;Laerm;62591;55.764;37.718;2023-02-15T12:02:16;48.95;40.53;64.65;;
74234;Laerm;62591;55.764;37.718;2023-02-15T12:04:49;46.01;41.36;59.02;;
74234;Laerm;62591;55.764;37.718;2023-02-15T12:07:20;48.02;42.38;62.37;;
74234;Laerm;62591;55.764;37.718;2023-02-15T12:10:00;48.35;41.34;61.20;;
74234;Laerm;62591;55.764;37.718;2023-02-15T12:12:36;46.28;41.08;61.01;;
74234;Laerm;62591;55.764;37.718;2023-02-15T12:15:07;47.49;40.57;60.70;;
74234;Laerm;62591;55.764;37.718;2023-02-15T12:17:39;49.98;41.46;60.20;;
74234;Laerm;62591;55.764;37.718;2023-02-15T12:20:21;48.80;43.34;62.92;;
74234;Laerm;62591;55.764;37.718;2023-02-15T12:22:55;52.24;42.90;70.26;;
74234;Laerm;62591;55.764;37.718;2023-02-15T12:25:35;48.33;41.40;61.72;;
74234;Laerm;62591;55.764;37.718;2023-02-15T12:28:23;47.22;41.99;54.71;;
74234;Laerm;62591;55.764;37.718;2023-02-15T12:30:53;47.55;42.30;58.29;;
74234;Laerm;62591;55.764;37.718;2023-02-15T12:33:27;48.47;41.23;57.78;;
74234;Laerm;62591;55.764;37.718;2023-02-15T12:36:03;48.65;43.64;68.04;;
74234;Laerm;62591;55.764;37.718;2023-02-15T12:38:32;47.16;41.81;55.17;;
74234;Laerm;62591;55.764;37.718;2023-02-15T12:41:04;47.28;41.87;56.23;;
74234;Laerm;62591;55.764;37.718;2023-02-15T12:43:36;48.70;43.00;69.11;;
74234;Laerm;62591;55.764;37.718;2023-02-15T12:46:22;48.52;41.42;68.15;;
74234;Laerm;62591;55.764;37.718;2023-02-15T12:49:16;47.34;41.61;61.79;;
74234;Laerm;62591;55.764;37.718;2023-02-15T12:51:49;49.60;41.55;68.20;;
74234;Laerm;62591;55.764;37.718;2023-02-15T12:54:28;47.30;40.79;63.16;;
74234;Laerm;62591;55.764;37.718;2023-02-15T12:56:58;47.74;42.00;74.57;;
74234;Laerm;62591;55.764;37.718;2023-02-15T12:59:29;47.89;42.35;61.20;;
74234;Laerm;62591;55.764;37.718;2023-02-15T13:01:58;46.83;41.89;52.95;;
74234;Laerm;62591;55.764;37.718;2023-02-15T13:04:30;47.58;42.97;60.72;;
74234;Laerm;62591;55.764;37.718;2023-02-15T13:07:00;48.37;42.57;59.29;;
74234;Laerm;62591;55.764;37.718;2023-02-15T13:09:38;48.64;42.13;61.79;;
74234;Laerm;62591;55.764;37.718;2023-02-15T13:12:15;48.60;43.25;64.97;;
74234;Laerm;62591;55.764;37.718;2023-02-15T13:14:47;47.15;41.48;58.87;;
74234;Laerm;62591;55.764;37.718;2023-02-15T13:17:21;50.75;43.10;70.60;;
74234;Laerm;62591;55.764;37.718;2023-02-15T13:19:59;51.84;42.32;77.32;;
74234;Laerm;62591;55.764;37.718;2023-02-15T13:22:34;49.98;43.94;70.73;;
74234;Laerm;62591;55.764;37.718;2023-02-15T13:25:14;53.25;42.67;74.76;;
74234;Laerm;62591;55.764;37.718;2023-02-15T13:27:47;48.28;42.77;60.88;;
74234;Laerm;62591;55.764;37.718;2023-02-15T13:30:24;47.33;42.00;60.17;;
74234;Laerm;62591;55.764;37.718;2023-02-15T13:32:56;46.57;40.56;59.05;;
74234;Laerm;62591;55.764;37.718;2023-02-15T13:35:31;47.21;41.37;61.48;;
74234;Laerm;62591;55.764;37.718;2023-02-15T13:38:16;48.62;42.78;64.18;;
74234;Laerm;62591;55.764;37.718;2023-02-15T13:40:51;48.28;41.85;62.36;;
74234;Laerm;62591;55.764;37.718;2023-02-15T13:43:38;48.35;41.27;76.47;;
74234;Laerm;62591;55.764;37.718;2023-02-15T13:46:14;48.24;42.06;59.82;;
74234;Laerm;62591;55.764;37.718;2023-02-15T13:48:52;46.67;39.90;59.33;;
74234;Laerm;62591;55.764;37.718;2023-02-15T13:51:29;45.25;39.94;51.65;;
74234;Laerm;62591;55.764;37.718;2023-02-15T13:54:16;47.56;39.51;58.86;;
74234;Laerm;62591;55.764;37.718;2023-02-15T13:56:56;47.36;41.93;65.39;;
74234;Laerm;62591;55.764;37.718;2023-02-15T13:59:41;46.20;40.23;54.53;;
74234;Laerm;62591;55.764;37.718;2023-02-15T14:02:49;48.85;40.91;62.82;;
74234;Laerm;62591;55.764;37.718;2023-02-15T14:05:39;48.34;41.96;62.58;;
74234;Laerm;62591;55.764;37.718;2023-02-15T14:08:20;46.25;41.11;59.34;;
74234;Laerm;62591;55.764;37.718;2023-02-15T14:10:59;46.45;40.60;58.23;;
74234;Laerm;62591;55.764;37.718;2023-02-15T14:13:50;47.45;41.19;59.66;;
74234;Laerm;62591;55.764;37.718;2023-02-15T14:16:30;48.12;42.78;65.58;;
74234;Laerm;62591;55.764;37.718;2023-02-15T14:19:12;48.82;43.43;63.12;;
74234;Laerm;62591;55.764;37.718;2023-02-15T14:21:48;48.48;42.23;67.67;;